sensor_id;sensor_type;location;lat;lon;timestamp;P1;durP1;ratioP1;P2;durP2;ratioP2
8060;SDS011;4073;42.626;25.386;2023-04-21T00:00:59;6.53;;;5.23;;
8060;SDS011;4073;42.626;25.386;2023-04-21T00:03:25;7.50;;;6.30;;
8060;SDS011;4073;42.626;25.386;2023-04-21T00:05:52;8.23;;;6.33;;
8060;SDS011;4073;42.626;25.386;2023-04-21T00:08:22;6.80;;;6.20;;
8060;SDS011;4073;42.626;25.386;2023-04-21T00:10:48;7.40;;;6.03;;
8060;SDS011;4073;42.626;25.386;2023-04-21T00:13:14;7.53;;;5.60;;
8060;SDS011;4073;42.626;25.386;2023-04-21T00:15:40;6.70;;;6.10;;
8060;SDS011;4073;42.626;25.386;2023-04-21T00:18:07;6.97;;;6.27;;
8060;SDS011;4073;42.626;25.386;2023-04-21T00:20:34;7.40;;;6.60;;
8060;SDS011;4073;42.626;25.386;2023-04-21T00:23:00;6.80;;;6.10;;
8060;SDS011;4073;42.626;25.386;2023-04-21T00:25:27;8.03;;;6.90;;
8060;SDS011;4073;42.626;25.386;2023-04-21T00:27:53;9.23;;;6.87;;
8060;SDS011;4073;42.626;25.386;2023-04-21T00:30:18;7.40;;;6.67;;
8060;SDS011;4073;42.626;25.386;2023-04-21T00:32:43;6.60;;;6.00;;
8060;SDS011;4073;42.626;25.386;2023-04-21T00:35:09;7.27;;;6.57;;
8060;SDS011;4073;42.626;25.386;2023-04-21T00:37:35;6.37;;;5.77;;
8060;SDS011;4073;42.626;25.386;2023-04-21T00:40:00;5.97;;;5.47;;
8060;SDS011;4073;42.626;25.386;2023-04-21T00:42:28;6.47;;;5.87;;
8060;SDS011;4073;42.626;25.386;2023-04-21T00:44:53;6.30;;;5.47;;
8060;SDS011;4073;42.626;25.386;2023-04-21T00:47:19;6.23;;;5.63;;
8060;SDS011;4073;42.626;25.386;2023-04-21T00:49:44;6.53;;;5.93;;
8060;SDS011;4073;42.626;25.386;2023-04-21T00:52:10;6.80;;;6.20;;
8060;SDS011;4073;42.626;25.386;2023-04-21T00:54:37;6.93;;;6.23;;
8060;SDS011;4073;42.626;25.386;2023-04-21T00:57:03;7.27;;;6.13;;
8060;SDS011;4073;42.626;25.386;2023-04-21T00:59:31;7.03;;;6.30;;
8060;SDS011;4073;42.626;25.386;2023-04-21T01:01:57;6.73;;;6.03;;
8060;SDS011;4073;42.626;25.386;2023-04-21T01:04:23;8.47;;;7.23;;
8060;SDS011;4073;42.626;25.386;2023-04-21T01:06:48;7.40;;;6.80;;
8060;SDS011;4073;42.626;25.386;2023-04-21T01:09:15;8.07;;;7.27;;
8060;SDS011;4073;42.626;25.386;2023-04-21T01:11:40;7.43;;;6.53;;
8060;SDS011;4073;42.626;25.386;2023-04-21T01:14:06;8.80;;;7.90;;
8060;SDS011;4073;42.626;25.386;2023-04-21T01:16:31;10.57;;;9.10;;
8060;SDS011;4073;42.626;25.386;2023-04-21T01:18:58;8.23;;;7.33;;
8060;SDS011;4073;42.626;25.386;2023-04-21T01:21:26;6.30;;;5.70;;
8060;SDS011;4073;42.626;25.386;2023-04-21T01:23:53;11.00;;;6.57;;
8060;SDS011;4073;42.626;25.386;2023-04-21T01:26:19;5.87;;;5.27;;
8060;SDS011;4073;42.626;25.386;2023-04-21T01:28:45;6.10;;;5.50;;
8060;SDS011;4073;42.626;25.386;2023-04-21T01:31:13;6.73;;;5.90;;
8060;SDS011;4073;42.626;25.386;2023-04-21T01:33:41;5.20;;;4.80;;
8060;SDS011;4073;42.626;25.386;2023-04-21T01:36:07;8.10;;;6.10;;
8060;SDS011;4073;42.626;25.386;2023-04-21T01:38:37;6.47;;;5.87;;
8060;SDS011;4073;42.626;25.386;2023-04-21T01:41:04;8.40;;;6.90;;
8060;SDS011;4073;42.626;25.386;2023-04-21T01:43:29;8.10;;;7.30;;
8060;SDS011;4073;42.626;25.386;2023-04-21T01:45:55;8.87;;;7.97;;
8060;SDS011;4073;42.626;25.386;2023-04-21T01:48:20;9.00;;;7.67;;
8060;SDS011;4073;42.626;25.386;2023-04-21T01:50:46;10.63;;;7.27;;
8060;SDS011;4073;42.626;25.386;2023-04-21T01:53:11;8.43;;;7.30;;
8060;SDS011;4073;42.626;25.386;2023-04-21T01:55:37;8.17;;;6.50;;
8060;SDS011;4073;42.626;25.386;2023-04-21T01:58:02;8.90;;;6.87;;
8060;SDS011;4073;42.626;25.386;2023-04-21T02:00:28;7.67;;;6.50;;
8060;SDS011;4073;42.626;25.386;2023-04-21T02:02:53;9.83;;;7.53;;
8060;SDS011;4073;42.626;25.386;2023-04-21T02:05:19;9.67;;;7.20;;
8060;SDS011;4073;42.626;25.386;2023-04-21T02:07:44;11.77;;;7.60;;
8060;SDS011;4073;42.626;25.386;2023-04-21T02:10:10;7.63;;;6.73;;
8060;SDS011;4073;42.626;25.386;2023-04-21T02:12:36;7.30;;;6.63;;
8060;SDS011;4073;42.626;25.386;2023-04-21T02:15:01;6.93;;;6.23;;
8060;SDS011;4073;42.626;25.386;2023-04-21T02:17:27;7.47;;;6.67;;
8060;SDS011;4073;42.626;25.386;2023-04-21T02:19:52;8.90;;;6.97;;
8060;SDS011;4073;42.626;25.386;2023-04-21T02:22:18;7.37;;;6.57;;
8060;SDS011;4073;42.626;25.386;2023-04-21T02:24:43;7.90;;;7.10;;
8060;SDS011;4073;42.626;25.386;2023-04-21T02:27:09;8.07;;;7.27;;
8060;SDS011;4073;42.626;25.386;2023-04-21T02:29:34;8.17;;;7.07;;
8060;SDS011;4073;42.626;25.386;2023-04-21T02:32:00;8.43;;;7.57;;
8060;SDS011;4073;42.626;25.386;2023-04-21T02:34:25;8.17;;;7.13;;
8060;SDS011;4073;42.626;25.386;2023-04-21T02:36:51;7.30;;;6.70;;
8060;SDS011;4073;42.626;25.386;2023-04-21T02:39:16;7.50;;;6.83;;
8060;SDS011;4073;42.626;25.386;2023-04-21T02:41:41;8.90;;;7.27;;
8060;SDS011;4073;42.626;25.386;2023-04-21T02:44:07;11.67;;;8.23;;
8060;SDS011;4073;42.626;25.386;2023-04-21T02:46:32;11.30;;;7.87;;
8060;SDS011;4073;42.626;25.386;2023-04-21T02:48:58;10.07;;;7.87;;
8060;SDS011;4073;42.626;25.386;2023-04-21T02:51:23;12.10;;;8.30;;
8060;SDS011;4073;42.626;25.386;2023-04-21T02:53:49;8.50;;;7.70;;
8060;SDS011;4073;42.626;25.386;2023-04-21T02:56:15;7.63;;;6.93;;
8060;SDS011;4073;42.626;25.386;2023-04-21T02:58:40;7.67;;;6.63;;
8060;SDS011;4073;42.626;25.386;2023-04-21T03:01:06;8.00;;;5.90;;
8060;SDS011;4073;42.626;25.386;2023-04-21T03:03:31;6.27;;;5.60;;
8060;SDS011;4073;42.626;25.386;2023-04-21T03:06:01;7.10;;;6.50;;
8060;SDS011;4073;42.626;25.386;2023-04-21T03:08:28;8.23;;;7.23;;
8060;SDS011;4073;42.626;25.386;2023-04-21T03:10:54;8.43;;;7.33;;
8060;SDS011;4073;42.626;25.386;2023-04-21T03:13:19;9.33;;;7.23;;
8060;SDS011;4073;42.626;25.386;2023-04-21T03:15:45;7.03;;;6.17;;
8060;SDS011;4073;42.626;25.386;2023-04-21T03:18:11;7.37;;;6.03;;
8060;SDS011;4073;42.626;25.386;2023-04-21T03:20:36;6.87;;;6.17;;
8060;SDS011;4073;42.626;25.386;2023-04-21T03:23:02;7.43;;;6.23;;
8060;SDS011;4073;42.626;25.386;2023-04-21T03:25:27;7.47;;;6.60;;
8060;SDS011;4073;42.626;25.386;2023-04-21T03:27:53;6.60;;;6.00;;
8060;SDS011;4073;42.626;25.386;2023-04-21T03:30:19;7.53;;;6.30;;
8060;SDS011;4073;42.626;25.386;2023-04-21T03:32:45;7.07;;;6.37;;
8060;SDS011;4073;42.626;25.386;2023-04-21T03:35:10;6.23;;;5.60;;
8060;SDS011;4073;42.626;25.386;2023-04-21T03:37:36;5.87;;;5.00;;
8060;SDS011;4073;42.626;25.386;2023-04-21T03:40:02;6.80;;;6.07;;
8060;SDS011;4073;42.626;25.386;2023-04-21T03:42:30;8.00;;;7.03;;
8060;SDS011;4073;42.626;25.386;2023-04-21T03:44:56;7.53;;;6.77;;
8060;SDS011;4073;42.626;25.386;2023-04-21T03:47:25;8.03;;;7.00;;
8060;SDS011;4073;42.626;25.386;2023-04-21T03:49:50;8.87;;;6.90;;
8060;SDS011;4073;42.626;25.386;2023-04-21T03:52:16;8.63;;;7.63;;
8060;SDS011;4073;42.626;25.386;2023-04-21T03:54:41;9.97;;;7.53;;
8060;SDS011;4073;42.626;25.386;2023-04-21T03:57:07;8.37;;;7.00;;
8060;SDS011;4073;42.626;25.386;2023-04-21T03:59:32;6.93;;;6.00;;
8060;SDS011;4073;42.626;25.386;2023-04-21T04:01:58;6.37;;;5.50;;
8060;SDS011;4073;42.626;25.386;2023-04-21T04:04:23;6.50;;;5.90;;
8060;SDS011;4073;42.626;25.386;2023-04-21T04:06:48;6.87;;;6.27;;
8060;SDS011;4073;42.626;25.386;2023-04-21T04:09:14;7.70;;;6.90;;
8060;SDS011;4073;42.626;25.386;2023-04-21T04:11:39;7.30;;;6.60;;
8060;SDS011;4073;42.626;25.386;2023-04-21T04:14:05;9.03;;;7.67;;
8060;SDS011;4073;42.626;25.386;2023-04-21T04:16:32;8.30;;;6.90;;
8060;SDS011;4073;42.626;25.386;2023-04-21T04:18:58;8.43;;;7.43;;
8060;SDS011;4073;42.626;25.386;2023-04-21T04:21:23;8.63;;;7.83;;
8060;SDS011;4073;42.626;25.386;2023-04-21T04:23:49;9.23;;;7.60;;
8060;SDS011;4073;42.626;25.386;2023-04-21T04:26:16;9.67;;;7.13;;
8060;SDS011;4073;42.626;25.386;2023-04-21T04:28:42;10.03;;;7.80;;
8060;SDS011;4073;42.626;25.386;2023-04-21T04:31:08;21.73;;;15.73;;
8060;SDS011;4073;42.626;25.386;2023-04-21T04:33:33;26.23;;;18.30;;
8060;SDS011;4073;42.626;25.386;2023-04-21T04:35:59;21.90;;;11.70;;
8060;SDS011;4073;42.626;25.386;2023-04-21T04:38:24;20.00;;;14.07;;
8060;SDS011;4073;42.626;25.386;2023-04-21T04:40:53;11.43;;;8.60;;
8060;SDS011;4073;42.626;25.386;2023-04-21T04:43:19;10.20;;;9.20;;
8060;SDS011;4073;42.626;25.386;2023-04-21T04:45:45;8.50;;;7.80;;
8060;SDS011;4073;42.626;25.386;2023-04-21T04:48:11;9.07;;;7.47;;
8060;SDS011;4073;42.626;25.386;2023-04-21T04:50:36;9.83;;;8.80;;
8060;SDS011;4073;42.626;25.386;2023-04-21T04:53:02;8.63;;;7.73;;
8060;SDS011;4073;42.626;25.386;2023-04-21T04:55:27;11.10;;;9.47;;
8060;SDS011;4073;42.626;25.386;2023-04-21T04:57:52;12.33;;;9.70;;
8060;SDS011;4073;42.626;25.386;2023-04-21T05:00:18;11.70;;;9.50;;
8060;SDS011;4073;42.626;25.386;2023-04-21T05:02:44;9.87;;;8.87;;
8060;SDS011;4073;42.626;25.386;2023-04-21T05:05:09;10.13;;;8.63;;
8060;SDS011;4073;42.626;25.386;2023-04-21T05:07:35;10.30;;;8.93;;
8060;SDS011;4073;42.626;25.386;2023-04-21T05:10:01;9.30;;;8.33;;
8060;SDS011;4073;42.626;25.386;2023-04-21T05:12:28;8.53;;;7.10;;
8060;SDS011;4073;42.626;25.386;2023-04-21T05:14:55;7.17;;;6.13;;
8060;SDS011;4073;42.626;25.386;2023-04-21T05:17:20;7.80;;;7.00;;
8060;SDS011;4073;42.626;25.386;2023-04-21T05:19:46;8.43;;;7.67;;
8060;SDS011;4073;42.626;25.386;2023-04-21T05:22:11;7.57;;;6.80;;
8060;SDS011;4073;42.626;25.386;2023-04-21T05:24:37;8.13;;;6.63;;
8060;SDS011;4073;42.626;25.386;2023-04-21T05:27:05;8.63;;;7.67;;
8060;SDS011;4073;42.626;25.386;2023-04-21T05:29:31;8.00;;;6.70;;
8060;SDS011;4073;42.626;25.386;2023-04-21T05:31:58;6.77;;;6.07;;
8060;SDS011;4073;42.626;25.386;2023-04-21T05:34:24;25.10;;;15.70;;
8060;SDS011;4073;42.626;25.386;2023-04-21T05:36:49;9.40;;;5.87;;
8060;SDS011;4073;42.626;25.386;2023-04-21T05:39:16;5.93;;;5.33;;
8060;SDS011;4073;42.626;25.386;2023-04-21T05:41:42;11.20;;;10.00;;
8060;SDS011;4073;42.626;25.386;2023-04-21T05:44:07;7.00;;;6.30;;
8060;SDS011;4073;42.626;25.386;2023-04-21T05:46:33;6.47;;;5.70;;
8060;SDS011;4073;42.626;25.386;2023-04-21T05:48:59;8.30;;;5.67;;
8060;SDS011;4073;42.626;25.386;2023-04-21T05:51:26;10.40;;;8.83;;
8060;SDS011;4073;42.626;25.386;2023-04-21T05:53:52;7.00;;;6.23;;
8060;SDS011;4073;42.626;25.386;2023-04-21T05:56:17;7.57;;;5.90;;
8060;SDS011;4073;42.626;25.386;2023-04-21T05:58:43;7.50;;;6.73;;
8060;SDS011;4073;42.626;25.386;2023-04-21T06:01:08;7.03;;;6.33;;
8060;SDS011;4073;42.626;25.386;2023-04-21T06:03:34;9.17;;;7.00;;
8060;SDS011;4073;42.626;25.386;2023-04-21T06:06:00;7.23;;;6.43;;
8060;SDS011;4073;42.626;25.386;2023-04-21T06:08:26;8.03;;;7.23;;
8060;SDS011;4073;42.626;25.386;2023-04-21T06:10:52;11.27;;;6.97;;
8060;SDS011;4073;42.626;25.386;2023-04-21T06:13:17;7.67;;;6.87;;
8060;SDS011;4073;42.626;25.386;2023-04-21T06:15:43;7.80;;;6.87;;
8060;SDS011;4073;42.626;25.386;2023-04-21T06:18:08;9.67;;;7.43;;
8060;SDS011;4073;42.626;25.386;2023-04-21T06:20:34;10.73;;;7.20;;
8060;SDS011;4073;42.626;25.386;2023-04-21T06:23:00;11.30;;;8.30;;
8060;SDS011;4073;42.626;25.386;2023-04-21T06:25:25;6.90;;;6.20;;
8060;SDS011;4073;42.626;25.386;2023-04-21T06:27:51;9.77;;;7.57;;
8060;SDS011;4073;42.626;25.386;2023-04-21T06:30:16;8.40;;;6.83;;
8060;SDS011;4073;42.626;25.386;2023-04-21T06:32:42;9.93;;;6.70;;
8060;SDS011;4073;42.626;25.386;2023-04-21T06:35:10;7.67;;;6.87;;
8060;SDS011;4073;42.626;25.386;2023-04-21T06:37:35;10.77;;;6.97;;
8060;SDS011;4073;42.626;25.386;2023-04-21T06:40:01;6.90;;;6.00;;
8060;SDS011;4073;42.626;25.386;2023-04-21T06:42:27;7.97;;;6.10;;
8060;SDS011;4073;42.626;25.386;2023-04-21T06:44:52;6.87;;;6.17;;
8060;SDS011;4073;42.626;25.386;2023-04-21T06:47:18;9.57;;;6.17;;
8060;SDS011;4073;42.626;25.386;2023-04-21T06:49:43;7.60;;;6.90;;
8060;SDS011;4073;42.626;25.386;2023-04-21T06:52:08;7.27;;;6.07;;
8060;SDS011;4073;42.626;25.386;2023-04-21T06:54:35;6.73;;;5.97;;
8060;SDS011;4073;42.626;25.386;2023-04-21T06:57:00;7.70;;;6.27;;
8060;SDS011;4073;42.626;25.386;2023-04-21T06:59:26;6.87;;;6.20;;
8060;SDS011;4073;42.626;25.386;2023-04-21T07:01:51;6.77;;;5.97;;
8060;SDS011;4073;42.626;25.386;2023-04-21T07:04:17;7.63;;;5.97;;
8060;SDS011;4073;42.626;25.386;2023-04-21T07:06:43;7.50;;;6.30;;
8060;SDS011;4073;42.626;25.386;2023-04-21T07:09:08;6.73;;;6.13;;
8060;SDS011;4073;42.626;25.386;2023-04-21T07:11:34;13.17;;;7.27;;
8060;SDS011;4073;42.626;25.386;2023-04-21T07:13:59;7.60;;;6.90;;
8060;SDS011;4073;42.626;25.386;2023-04-21T07:16:26;7.83;;;6.20;;
8060;SDS011;4073;42.626;25.386;2023-04-21T07:18:52;8.87;;;6.63;;
8060;SDS011;4073;42.626;25.386;2023-04-21T07:21:18;6.97;;;6.20;;
8060;SDS011;4073;42.626;25.386;2023-04-21T07:23:43;8.50;;;7.20;;
8060;SDS011;4073;42.626;25.386;2023-04-21T07:26:09;6.73;;;6.13;;
8060;SDS011;4073;42.626;25.386;2023-04-21T07:28:34;9.13;;;5.90;;
8060;SDS011;4073;42.626;25.386;2023-04-21T07:31:00;8.73;;;6.40;;
8060;SDS011;4073;42.626;25.386;2023-04-21T07:33:25;6.23;;;5.63;;
8060;SDS011;4073;42.626;25.386;2023-04-21T07:35:51;6.57;;;6.03;;
8060;SDS011;4073;42.626;25.386;2023-04-21T07:38:16;8.90;;;6.40;;
8060;SDS011;4073;42.626;25.386;2023-04-21T07:40:42;7.70;;;6.90;;
8060;SDS011;4073;42.626;25.386;2023-04-21T07:43:07;6.90;;;5.37;;
8060;SDS011;4073;42.626;25.386;2023-04-21T07:45:33;6.57;;;5.97;;
8060;SDS011;4073;42.626;25.386;2023-04-21T07:47:58;6.03;;;4.90;;
8060;SDS011;4073;42.626;25.386;2023-04-21T07:50:24;5.93;;;4.67;;
8060;SDS011;4073;42.626;25.386;2023-04-21T07:52:49;5.30;;;4.80;;
8060;SDS011;4073;42.626;25.386;2023-04-21T07:55:14;5.20;;;4.63;;
8060;SDS011;4073;42.626;25.386;2023-04-21T07:57:40;4.73;;;4.00;;
8060;SDS011;4073;42.626;25.386;2023-04-21T08:00:06;7.60;;;5.53;;
8060;SDS011;4073;42.626;25.386;2023-04-21T08:02:33;7.03;;;6.33;;
8060;SDS011;4073;42.626;25.386;2023-04-21T08:04:58;6.27;;;4.77;;
8060;SDS011;4073;42.626;25.386;2023-04-21T08:07:24;5.93;;;4.63;;
8060;SDS011;4073;42.626;25.386;2023-04-21T08:09:49;6.13;;;4.90;;
8060;SDS011;4073;42.626;25.386;2023-04-21T08:12:15;8.87;;;4.40;;
8060;SDS011;4073;42.626;25.386;2023-04-21T08:14:40;7.50;;;4.20;;
8060;SDS011;4073;42.626;25.386;2023-04-21T08:17:06;7.00;;;4.10;;
8060;SDS011;4073;42.626;25.386;2023-04-21T08:19:31;6.30;;;4.53;;
8060;SDS011;4073;42.626;25.386;2023-04-21T08:21:57;4.73;;;3.53;;
8060;SDS011;4073;42.626;25.386;2023-04-21T08:24:23;6.63;;;5.47;;
8060;SDS011;4073;42.626;25.386;2023-04-21T08:26:48;10.57;;;4.00;;
8060;SDS011;4073;42.626;25.386;2023-04-21T08:29:14;7.77;;;4.77;;
8060;SDS011;4073;42.626;25.386;2023-04-21T08:31:40;6.17;;;3.70;;
8060;SDS011;4073;42.626;25.386;2023-04-21T08:34:06;6.00;;;3.73;;
8060;SDS011;4073;42.626;25.386;2023-04-21T08:36:31;7.53;;;3.63;;
8060;SDS011;4073;42.626;25.386;2023-04-21T08:38:57;4.93;;;4.10;;
8060;SDS011;4073;42.626;25.386;2023-04-21T08:41:23;5.03;;;3.30;;
8060;SDS011;4073;42.626;25.386;2023-04-21T08:43:50;5.03;;;3.33;;
8060;SDS011;4073;42.626;25.386;2023-04-21T08:46:15;4.60;;;4.03;;
8060;SDS011;4073;42.626;25.386;2023-04-21T08:48:41;4.40;;;3.50;;
8060;SDS011;4073;42.626;25.386;2023-04-21T08:51:07;5.70;;;3.20;;
8060;SDS011;4073;42.626;25.386;2023-04-21T08:53:37;4.80;;;3.70;;
8060;SDS011;4073;42.626;25.386;2023-04-21T08:56:05;3.67;;;3.30;;
8060;SDS011;4073;42.626;25.386;2023-04-21T08:58:31;4.53;;;3.17;;
8060;SDS011;4073;42.626;25.386;2023-04-21T09:00:56;5.67;;;3.40;;
8060;SDS011;4073;42.626;25.386;2023-04-21T09:03:26;5.47;;;4.00;;
8060;SDS011;4073;42.626;25.386;2023-04-21T09:05:59;5.67;;;3.67;;
8060;SDS011;4073;42.626;25.386;2023-04-21T09:08:25;4.37;;;3.47;;
8060;SDS011;4073;42.626;25.386;2023-04-21T09:10:53;4.30;;;3.77;;
8060;SDS011;4073;42.626;25.386;2023-04-21T09:13:18;4.47;;;3.93;;
8060;SDS011;4073;42.626;25.386;2023-04-21T09:15:48;4.80;;;3.90;;
8060;SDS011;4073;42.626;25.386;2023-04-21T09:18:20;4.77;;;3.80;;
8060;SDS011;4073;42.626;25.386;2023-04-21T09:20:49;5.03;;;3.57;;
8060;SDS011;4073;42.626;25.386;2023-04-21T09:23:16;4.30;;;3.67;;
8060;SDS011;4073;42.626;25.386;2023-04-21T09:25:43;5.43;;;3.70;;
8060;SDS011;4073;42.626;25.386;2023-04-21T09:28:10;4.77;;;3.83;;
8060;SDS011;4073;42.626;25.386;2023-04-21T09:30:39;5.07;;;4.40;;
8060;SDS011;4073;42.626;25.386;2023-04-21T09:33:06;4.60;;;3.83;;
8060;SDS011;4073;42.626;25.386;2023-04-21T09:35:33;7.03;;;4.50;;
8060;SDS011;4073;42.626;25.386;2023-04-21T09:38:00;4.67;;;3.93;;
8060;SDS011;4073;42.626;25.386;2023-04-21T09:40:28;4.23;;;3.83;;
8060;SDS011;4073;42.626;25.386;2023-04-21T09:42:54;4.47;;;3.93;;
8060;SDS011;4073;42.626;25.386;2023-04-21T09:45:21;7.10;;;4.13;;
8060;SDS011;4073;42.626;25.386;2023-04-21T09:47:56;6.77;;;3.87;;
8060;SDS011;4073;42.626;25.386;2023-04-21T09:50:25;4.37;;;3.93;;
8060;SDS011;4073;42.626;25.386;2023-04-21T09:52:51;4.53;;;4.13;;
8060;SDS011;4073;42.626;25.386;2023-04-21T09:55:18;7.60;;;4.13;;
8060;SDS011;4073;42.626;25.386;2023-04-21T09:57:49;4.40;;;3.87;;
8060;SDS011;4073;42.626;25.386;2023-04-21T10:00:16;3.63;;;3.33;;
8060;SDS011;4073;42.626;25.386;2023-04-21T10:02:49;4.10;;;3.53;;
8060;SDS011;4073;42.626;25.386;2023-04-21T10:05:15;5.10;;;4.50;;
8060;SDS011;4073;42.626;25.386;2023-04-21T10:07:41;4.67;;;4.20;;
8060;SDS011;4073;42.626;25.386;2023-04-21T10:10:15;3.50;;;3.20;;
8060;SDS011;4073;42.626;25.386;2023-04-21T10:12:52;4.70;;;4.23;;
8060;SDS011;4073;42.626;25.386;2023-04-21T10:15:28;4.10;;;3.50;;
8060;SDS011;4073;42.626;25.386;2023-04-21T10:18:06;4.30;;;3.60;;
8060;SDS011;4073;42.626;25.386;2023-04-21T10:20:55;5.37;;;4.30;;
8060;SDS011;4073;42.626;25.386;2023-04-21T10:23:35;5.87;;;4.23;;
8060;SDS011;4073;42.626;25.386;2023-04-21T10:33:40;7.07;;;4.30;;
8060;SDS011;4073;42.626;25.386;2023-04-21T10:36:06;4.80;;;4.40;;
8060;SDS011;4073;42.626;25.386;2023-04-21T10:38:40;7.37;;;4.20;;
8060;SDS011;4073;42.626;25.386;2023-04-21T10:43:56;4.73;;;4.00;;
8060;SDS011;4073;42.626;25.386;2023-04-21T10:46:36;4.87;;;4.47;;
8060;SDS011;4073;42.626;25.386;2023-04-21T10:49:22;6.93;;;4.50;;
8060;SDS011;4073;42.626;25.386;2023-04-21T10:56:54;5.40;;;4.40;;
8060;SDS011;4073;42.626;25.386;2023-04-21T10:59:20;5.23;;;4.73;;
8060;SDS011;4073;42.626;25.386;2023-04-21T11:01:46;7.67;;;4.70;;
8060;SDS011;4073;42.626;25.386;2023-04-21T11:04:21;5.00;;;4.30;;
8060;SDS011;4073;42.626;25.386;2023-04-21T11:09:35;5.53;;;4.67;;
8060;SDS011;4073;42.626;25.386;2023-04-21T11:12:05;5.60;;;4.43;;
8060;SDS011;4073;42.626;25.386;2023-04-21T11:14:35;5.23;;;4.73;;
8060;SDS011;4073;42.626;25.386;2023-04-21T11:17:03;4.70;;;4.30;;
8060;SDS011;4073;42.626;25.386;2023-04-21T11:19:33;7.00;;;4.67;;
8060;SDS011;4073;42.626;25.386;2023-04-21T11:21:58;5.40;;;4.70;;
8060;SDS011;4073;42.626;25.386;2023-04-21T11:24:24;7.07;;;4.80;;
8060;SDS011;4073;42.626;25.386;2023-04-21T11:26:50;5.83;;;4.57;;
8060;SDS011;4073;42.626;25.386;2023-04-21T11:29:15;6.80;;;4.50;;
8060;SDS011;4073;42.626;25.386;2023-04-21T11:31:42;6.33;;;4.80;;
8060;SDS011;4073;42.626;25.386;2023-04-21T11:34:10;4.87;;;4.37;;
8060;SDS011;4073;42.626;25.386;2023-04-21T11:36:37;5.27;;;4.87;;
8060;SDS011;4073;42.626;25.386;2023-04-21T11:39:08;5.00;;;4.60;;
8060;SDS011;4073;42.626;25.386;2023-04-21T11:41:39;6.70;;;4.57;;
8060;SDS011;4073;42.626;25.386;2023-04-21T11:44:06;4.90;;;4.40;;
8060;SDS011;4073;42.626;25.386;2023-04-21T11:46:32;6.23;;;4.33;;
8060;SDS011;4073;42.626;25.386;2023-04-21T11:49:01;4.93;;;4.53;;
8060;SDS011;4073;42.626;25.386;2023-04-21T11:51:31;4.70;;;4.27;;
8060;SDS011;4073;42.626;25.386;2023-04-21T11:54:04;6.33;;;3.90;;
8060;SDS011;4073;42.626;25.386;2023-04-21T11:56:38;6.03;;;4.53;;
8060;SDS011;4073;42.626;25.386;2023-04-21T11:59:11;4.33;;;3.97;;
8060;SDS011;4073;42.626;25.386;2023-04-21T12:04:15;5.10;;;3.63;;
8060;SDS011;4073;42.626;25.386;2023-04-21T12:06:42;6.23;;;4.20;;
8060;SDS011;4073;42.626;25.386;2023-04-21T12:09:15;5.40;;;4.30;;
8060;SDS011;4073;42.626;25.386;2023-04-21T12:11:41;5.57;;;4.40;;
8060;SDS011;4073;42.626;25.386;2023-04-21T12:14:07;9.13;;;4.87;;
8060;SDS011;4073;42.626;25.386;2023-04-21T12:16:35;4.53;;;3.90;;
8060;SDS011;4073;42.626;25.386;2023-04-21T12:19:01;6.63;;;3.80;;
8060;SDS011;4073;42.626;25.386;2023-04-21T12:21:27;4.73;;;4.27;;
8060;SDS011;4073;42.626;25.386;2023-04-21T12:23:53;4.67;;;4.17;;
8060;SDS011;4073;42.626;25.386;2023-04-21T12:26:18;4.23;;;3.80;;
8060;SDS011;4073;42.626;25.386;2023-04-21T12:28:46;5.93;;;4.20;;
8060;SDS011;4073;42.626;25.386;2023-04-21T12:31:11;5.03;;;4.10;;
8060;SDS011;4073;42.626;25.386;2023-04-21T12:33:38;4.97;;;4.07;;
8060;SDS011;4073;42.626;25.386;2023-04-21T12:36:03;6.10;;;4.23;;
8060;SDS011;4073;42.626;25.386;2023-04-21T12:38:29;5.20;;;4.50;;
8060;SDS011;4073;42.626;25.386;2023-04-21T12:40:54;6.17;;;3.63;;
8060;SDS011;4073;42.626;25.386;2023-04-21T12:43:20;5.47;;;3.70;;
8060;SDS011;4073;42.626;25.386;2023-04-21T12:45:46;4.77;;;4.07;;
8060;SDS011;4073;42.626;25.386;2023-04-21T12:48:11;4.23;;;3.83;;
8060;SDS011;4073;42.626;25.386;2023-04-21T12:50:37;5.87;;;3.80;;
8060;SDS011;4073;42.626;25.386;2023-04-21T12:53:02;6.30;;;4.10;;
8060;SDS011;4073;42.626;25.386;2023-04-21T12:55:28;4.77;;;3.63;;
8060;SDS011;4073;42.626;25.386;2023-04-21T12:57:53;6.23;;;4.00;;
8060;SDS011;4073;42.626;25.386;2023-04-21T13:00:19;5.17;;;4.43;;
8060;SDS011;4073;42.626;25.386;2023-04-21T13:02:44;5.80;;;4.03;;
8060;SDS011;4073;42.626;25.386;2023-04-21T13:05:10;6.90;;;4.10;;
8060;SDS011;4073;42.626;25.386;2023-04-21T13:07:36;4.10;;;3.70;;
8060;SDS011;4073;42.626;25.386;2023-04-21T13:10:03;5.80;;;3.70;;
8060;SDS011;4073;42.626;25.386;2023-04-21T13:12:30;5.83;;;3.43;;
8060;SDS011;4073;42.626;25.386;2023-04-21T13:14:56;5.13;;;3.87;;
8060;SDS011;4073;42.626;25.386;2023-04-21T13:17:22;6.90;;;3.97;;
8060;SDS011;4073;42.626;25.386;2023-04-21T13:19:47;4.77;;;3.93;;
8060;SDS011;4073;42.626;25.386;2023-04-21T13:22:13;6.17;;;4.17;;
8060;SDS011;4073;42.626;25.386;2023-04-21T13:24:38;4.70;;;4.20;;
8060;SDS011;4073;42.626;25.386;2023-04-21T13:27:04;6.00;;;3.30;;
8060;SDS011;4073;42.626;25.386;2023-04-21T13:29:29;6.73;;;3.87;;
8060;SDS011;4073;42.626;25.386;2023-04-21T13:32:02;5.43;;;4.00;;
8060;SDS011;4073;42.626;25.386;2023-04-21T13:34:29;3.97;;;3.53;;
8060;SDS011;4073;42.626;25.386;2023-04-21T13:36:55;3.80;;;3.50;;
8060;SDS011;4073;42.626;25.386;2023-04-21T13:39:20;6.47;;;4.20;;
8060;SDS011;4073;42.626;25.386;2023-04-21T13:41:46;6.20;;;3.70;;
8060;SDS011;4073;42.626;25.386;2023-04-21T13:44:12;5.90;;;3.83;;
8060;SDS011;4073;42.626;25.386;2023-04-21T13:46:37;6.10;;;5.10;;
8060;SDS011;4073;42.626;25.386;2023-04-21T13:49:03;5.00;;;4.50;;
8060;SDS011;4073;42.626;25.386;2023-04-21T13:51:30;4.77;;;4.27;;
8060;SDS011;4073;42.626;25.386;2023-04-21T13:53:56;5.00;;;4.20;;
8060;SDS011;4073;42.626;25.386;2023-04-21T13:56:22;6.20;;;4.23;;
8060;SDS011;4073;42.626;25.386;2023-04-21T13:58:47;5.80;;;4.00;;
8060;SDS011;4073;42.626;25.386;2023-04-21T14:01:13;5.27;;;3.87;;
8060;SDS011;4073;42.626;25.386;2023-04-21T14:03:39;8.10;;;4.27;;
8060;SDS011;4073;42.626;25.386;2023-04-21T14:06:05;4.83;;;3.90;;
8060;SDS011;4073;42.626;25.386;2023-04-21T14:08:31;4.60;;;3.63;;
8060;SDS011;4073;42.626;25.386;2023-04-21T14:10:56;4.77;;;3.73;;
8060;SDS011;4073;42.626;25.386;2023-04-21T14:13:23;7.87;;;4.37;;
8060;SDS011;4073;42.626;25.386;2023-04-21T14:15:50;8.17;;;4.43;;
8060;SDS011;4073;42.626;25.386;2023-04-21T14:18:16;4.63;;;3.60;;
8060;SDS011;4073;42.626;25.386;2023-04-21T14:20:41;4.23;;;3.63;;
8060;SDS011;4073;42.626;25.386;2023-04-21T14:23:07;4.60;;;4.20;;
8060;SDS011;4073;42.626;25.386;2023-04-21T14:25:32;6.73;;;3.80;;
8060;SDS011;4073;42.626;25.386;2023-04-21T14:27:58;5.17;;;3.70;;
8060;SDS011;4073;42.626;25.386;2023-04-21T14:30:24;4.53;;;3.73;;
8060;SDS011;4073;42.626;25.386;2023-04-21T14:32:49;6.83;;;4.57;;
8060;SDS011;4073;42.626;25.386;2023-04-21T14:35:15;4.57;;;3.90;;
8060;SDS011;4073;42.626;25.386;2023-04-21T14:37:40;4.43;;;3.60;;
8060;SDS011;4073;42.626;25.386;2023-04-21T14:40:06;7.33;;;4.83;;
8060;SDS011;4073;42.626;25.386;2023-04-21T14:42:33;5.30;;;3.73;;
8060;SDS011;4073;42.626;25.386;2023-04-21T14:44:58;6.87;;;4.50;;
8060;SDS011;4073;42.626;25.386;2023-04-21T14:47:24;9.60;;;4.70;;
8060;SDS011;4073;42.626;25.386;2023-04-21T14:49:50;4.90;;;4.23;;
8060;SDS011;4073;42.626;25.386;2023-04-21T14:52:20;6.60;;;4.60;;
8060;SDS011;4073;42.626;25.386;2023-04-21T14:54:48;10.70;;;5.33;;
8060;SDS011;4073;42.626;25.386;2023-04-21T14:57:13;6.20;;;4.37;;
8060;SDS011;4073;42.626;25.386;2023-04-21T14:59:39;7.27;;;4.50;;
8060;SDS011;4073;42.626;25.386;2023-04-21T15:02:04;7.40;;;4.23;;
8060;SDS011;4073;42.626;25.386;2023-04-21T15:04:30;4.80;;;4.30;;
8060;SDS011;4073;42.626;25.386;2023-04-21T15:06:56;5.13;;;3.70;;
8060;SDS011;4073;42.626;25.386;2023-04-21T15:09:21;4.50;;;4.00;;
8060;SDS011;4073;42.626;25.386;2023-04-21T15:11:47;5.60;;;3.33;;
8060;SDS011;4073;42.626;25.386;2023-04-21T15:14:12;6.13;;;4.00;;
8060;SDS011;4073;42.626;25.386;2023-04-21T15:16:38;4.13;;;3.60;;